Flight Track Log - Related Links

Times and Time Zones

All times are in EDT time to prevent confusion due to time zone crossing. See the ASH2628 flight status page for this flight to view local times or setup timezone preferences in your user account.

Time Position Orientation Groundspeed Altitude Reporting Facility
EDT Latitude Longitude Course Direction KTS MPH feet Rate Location/Type
Wed 06:59:00 PM 20.8313 -103.6524 313° West  Level FlightAware
Wed 07:00:00 PM 20.9120 -103.7447 313° West  Level FlightAware
Wed 07:01:00 PM 20.9938 -103.8360 314° West  Level FlightAware
Wed 07:02:00 PM 21.0756 -103.9274 314° West  Level FlightAware
Wed 07:03:00 PM 21.1573 -104.0188 314° West  Level FlightAware
Wed 07:04:00 PM 21.2413 -104.1079 317° Northwest  Level FlightAware
Wed 07:05:00 PM 21.3277 -104.1944 317° Northwest  Level FlightAware
Wed 07:06:00 PM 21.4113 -104.2840 314° West  Level FlightAware
Wed 07:07:00 PM 21.4939 -104.3749 314° West  Level FlightAware
Wed 07:08:00 PM 21.5724 -104.4697 311° West  Level FlightAware
Wed 07:09:00 PM 21.6576 -104.5576 317° Northwest  Level FlightAware
Wed 07:10:00 PM 21.7350 -104.6519 313° West  Level FlightAware
Wed 07:11:00 PM 21.8160 -104.7445 313° West  Level FlightAware
Wed 07:12:00 PM 21.9003 -104.8336 317° Northwest  Level FlightAware
Wed 07:13:00 PM 21.9845 -104.9229 314° West  Level FlightAware
Wed 07:14:00 PM 22.0672 -105.0139 314° West  Level FlightAware
Wed 07:15:00 PM 22.1495 -105.1055 314° West  Level FlightAware
Wed 07:16:00 PM 22.2314 -105.1974 314° West  Level FlightAware
Wed 07:17:00 PM 22.3132 -105.2895 314° West  Level FlightAware
Wed 07:18:00 PM 22.3950 -105.3817 314° West  Level FlightAware
Wed 07:19:00 PM 22.4767 -105.4740 314° West  Level FlightAware
Wed 07:20:00 PM 22.5584 -105.5665 314° West  Level FlightAware
Wed 07:21:00 PM 22.6401 -105.6590 314° West  Level FlightAware
Wed 07:22:00 PM 22.7217 -105.7516 314° West  Level FlightAware
Wed 07:23:00 PM 22.8032 -105.8443 314° West  Level FlightAware
Wed 07:24:00 PM 22.8839 -105.9379 311° West  Level FlightAware
Wed 07:25:00 PM 22.9620 -106.0342 311° West  Level FlightAware
Wed 07:26:00 PM 23.0401 -106.1306 311° West  Level FlightAware
Wed 07:27:00 PM 23.1181 -106.2271 311° West  Level FlightAware
Wed 07:28:00 PM 23.2073 -106.3099 325° Northwest  Level FlightAware
Wed 07:29:00 PM 23.3044 -106.3831 325° Northwest  Level FlightAware
Wed 07:30:00 PM 23.4015 -106.4565 325° Northwest  Level FlightAware
Wed 07:31:00 PM 23.4986 -106.5299 325° Northwest  Level FlightAware
Wed 07:32:00 PM 23.5956 -106.6035 325° Northwest  Level FlightAware
Wed 07:33:00 PM 23.6926 -106.6772 325° Northwest  Level FlightAware
Wed 07:34:00 PM 23.7895 -106.7510 325° Northwest  Level FlightAware
Wed 07:35:00 PM 23.8864 -106.8249 325° Northwest  Level FlightAware
Wed 07:36:00 PM 23.9833 -106.8989 325° Northwest  Level FlightAware
Wed 07:37:00 PM 24.0801 -106.9731 325° Northwest  Level FlightAware
Wed 07:38:00 PM 24.1769 -107.0473 325° Northwest  Level FlightAware
Wed 07:39:00 PM 24.2737 -107.1217 325° Northwest  Level FlightAware
Wed 07:40:00 PM 24.3704 -107.1961 325° Northwest  Level FlightAware
Wed 07:41:00 PM 24.4671 -107.2707 325° Northwest  Level FlightAware
Wed 07:42:00 PM 24.5638 -107.3454 325° Northwest  Level FlightAware
Wed 07:43:00 PM 24.6604 -107.4202 325° Northwest  Level FlightAware
Wed 07:44:00 PM 24.7570 -107.4951 325° Northwest  Level FlightAware
Wed 07:45:00 PM 24.8535 -107.5702 325° Northwest  Level FlightAware
Wed 07:46:00 PM 24.9500 -107.6453 325° Northwest  Level FlightAware
Wed 07:47:00 PM 25.0465 -107.7206 325° Northwest  Level FlightAware
Wed 07:48:00 PM 25.1429 -107.7960 325° Northwest  Level FlightAware
Wed 07:49:00 PM 25.2393 -107.8715 325° Northwest  Level FlightAware
Wed 07:50:00 PM 25.3357 -107.9471 325° Northwest  Level FlightAware
Wed 07:51:00 PM 25.4320 -108.0229 325° Northwest  Level FlightAware
Wed 07:52:00 PM 25.5283 -108.0988 325° Northwest  Level FlightAware
Wed 07:53:00 PM 25.6245 -108.1748 325° Northwest  Level FlightAware
Wed 07:54:00 PM 25.7207 -108.2509 325° Northwest  Level FlightAware
Wed 07:55:00 PM 25.8169 -108.3271 324° Northwest  Level FlightAware
Wed 07:56:00 PM 25.9129 -108.4037 324° Northwest  Level FlightAware
Wed 07:57:00 PM 26.0086 -108.4807 324° Northwest  Level FlightAware
Wed 07:58:00 PM 26.1044 -108.5577 324° Northwest  Level FlightAware
Wed 07:59:00 PM 26.2001 -108.6349 324° Northwest  Level FlightAware
Wed 08:00:00 PM 26.2957 -108.7123 324° Northwest  Level FlightAware
Wed 08:01:00 PM 26.3914 -108.7897 324° Northwest  Level FlightAware
Wed 08:02:00 PM 26.4869 -108.8673 324° Northwest  Level FlightAware
Wed 08:03:00 PM 26.5825 -108.9451 324° Northwest  Level FlightAware
Wed 08:04:00 PM 26.6780 -109.0229 324° Northwest  Level FlightAware
Wed 08:05:00 PM 26.7734 -109.1009 324° Northwest  Level FlightAware
Wed 08:06:00 PM 26.8688 -109.1790 324° Northwest  Level FlightAware
Wed 08:07:00 PM 26.9642 -109.2572 324° Northwest  Level FlightAware
Wed 08:08:00 PM 27.0595 -109.3356 324° Northwest  Level FlightAware
Wed 08:09:00 PM 27.1548 -109.4141 324° Northwest  Level FlightAware
Wed 08:10:00 PM 27.2500 -109.4928 324° Northwest  Level FlightAware
Wed 08:11:00 PM 27.3452 -109.5715 324° Northwest  Level FlightAware
Wed 08:12:00 PM 27.4403 -109.6504 324° Northwest  Level FlightAware
Wed 08:13:00 PM 27.5354 -109.7295 324° Northwest  Level FlightAware
Wed 08:14:00 PM 27.6305 -109.8087 324° Northwest  Level FlightAware
Wed 08:15:00 PM 27.7258 -109.8875 324° Northwest  Level FlightAware
Wed 08:16:00 PM 27.8220 -109.9651 324° Northwest  Level FlightAware
Wed 08:17:00 PM 27.9181 -110.0429 324° Northwest  Level FlightAware
Wed 08:18:00 PM 28.0141 -110.1208 324° Northwest  Level FlightAware
Wed 08:19:00 PM 28.1093 -110.2001 323° Northwest  Level FlightAware
Wed 08:20:00 PM 28.2040 -110.2803 323° Northwest  Level FlightAware
Wed 08:21:00 PM 28.2987 -110.3605 323° Northwest  Level FlightAware
Wed 08:22:00 PM 28.3933 -110.4410 323° Northwest  Level FlightAware
Wed 08:23:00 PM 28.4878 -110.5216 323° Northwest  Level FlightAware
Wed 08:24:00 PM 28.5823 -110.6023 323° Northwest  Level FlightAware
Wed 08:25:00 PM 28.6768 -110.6832 323° Northwest  Level FlightAware
Wed 08:26:00 PM 28.7712 -110.7642 323° Northwest  Level FlightAware
Wed 08:27:00 PM 28.8656 -110.8453 323° Northwest  Level FlightAware
Wed 08:28:00 PM 28.9599 -110.9266 323° Northwest  Level FlightAware
Wed 08:29:00 PM 29.0542 -111.0081 323° Northwest  Level FlightAware
Wed 08:30:00 PM 29.1649 -111.0333 North  Level FlightAware
Wed 08:31:00 PM 29.2831 -111.0333 360° North  Level FlightAware
Wed 08:32:00 PM 29.4012 -111.0302 North  Level FlightAware
Wed 08:33:00 PM 29.5192 -111.0247 North  Level FlightAware
Wed 08:34:00 PM 29.6373 -111.0192 North  Level FlightAware
Wed 08:35:00 PM 29.7554 -111.0138 North  Level FlightAware
Wed 08:36:00 PM 29.8734 -111.0083 North  Level FlightAware
Wed 08:36:17 PM 30.7233 -110.5253 North 428 493 34,000  Level Albuquerque Center
Wed 08:37:00 PM 29.9915 -111.0027 North  Level FlightAware
Wed 08:37:19 PM 30.8253 -110.5953 329° Northwest 430 495 34,000  Level Albuquerque Center
Wed 08:38:00 PM 30.1095 -110.9960 North  Level FlightAware
Wed 08:38:21 PM 30.9294 -110.6669 329° Northwest 432 497 34,000  Level Albuquerque Center
Wed 08:39:00 PM 30.2275 -110.9882 North  Level FlightAware
Wed 08:39:22 PM 31.0342 -110.7383 330° Northwest 434 499 33,500  Level Albuquerque Center
Wed 08:40:00 PM 30.3455 -110.9812 North  Level FlightAware
Wed 08:40:24 PM 31.1592 -110.8269 329° Northwest 437 503 32,300  Level Albuquerque Center
Wed 08:41:00 PM 30.4635 -110.9758 North  Level FlightAware
Wed 08:41:25 PM 31.2642 -110.9011 329° Northwest 442 509 32,000  Level Albuquerque Center
Wed 08:42:27 PM 31.3908 -110.9414 345° North 475 547 32,000  Level Albuquerque Center
Wed 08:43:29 PM 31.5203 -110.9403 360° North 467 537 32,000  Level Albuquerque Center
Wed 08:44:30 PM 31.6467 -110.9339 North 473 544 32,000  Level Albuquerque Center
Wed 08:45:32 PM 31.7747 -110.9311 North 461 531 32,000 -1,452 Level Albuquerque Center
Wed 08:46:34 PM 31.9228 -110.9228 North 454 522 29,000 -2,780 Descending Albuquerque Center
Wed 08:47:35 PM 32.0414 -110.9131 North 442 509 26,300 -1,463 Descending Albuquerque Center
Wed 08:48:37 PM 32.1525 -110.9244 355° North 421 484 26,000 -146 Descending Albuquerque Center
Wed 08:49:38 PM 32.2628 -110.9581 346° North 410 472 26,000 -244 Level Albuquerque Center
Wed 08:50:40 PM 32.3783 -110.9889 347° North 419 482 25,500 -968 Descending Albuquerque Center
Wed 08:51:42 PM 32.4844 -111.0197 346° North 405 466 24,000 -1,512 Descending Albuquerque Center
Wed 08:52:43 PM 32.5756 -111.0719 334° Northwest 375 432 22,400 -1,756 Descending Albuquerque Center
Wed 08:53:45 PM 32.6736 -111.1456 328° Northwest 350 403 20,400 -1,790 Descending Albuquerque Center
Wed 08:54:47 PM 32.7494 -111.2044 327° Northwest 333 383 18,700 -1,756 Descending Albuquerque Center
Wed 08:55:48 PM 32.8267 -111.2644 327° Northwest 332 382 16,800 -1,707 Descending Albuquerque Center
Wed 08:56:50 PM 32.9017 -111.3194 328° Northwest 319 367 15,200 -1,452 Descending Albuquerque Center
Wed 08:57:52 PM 32.9733 -111.3769 326° Northwest 312 359 13,800 -1,366 Descending Albuquerque Center
Wed 08:58:53 PM 33.0283 -111.4528 311° West 305 351 12,400 -1,317 Descending Albuquerque Center
Wed 08:59:55 PM 33.0719 -111.5392 301° West 302 348 11,100 -1,355 Descending Albuquerque Center
Wed 09:00:57 PM 33.1506 -111.5992 327° Northwest 282 325 9,600 -1,220 Descending Albuquerque Center
Wed 09:01:58 PM 33.2167 -111.6361 335° Northwest 264 304 8,600 -1,024 Descending Albuquerque Center
Wed 09:03:00 PM 33.2756 -111.6711 334° Northwest 242 278 7,500 -1,161 Descending Albuquerque Center
Wed 09:04:02 PM 33.3286 -111.7122 327° Northwest 229 264 6,200 -1,268 Descending Albuquerque Center
Wed 09:05:03 PM 33.3811 -111.7578 324° Northwest 232 267 4,900 -1,073 Descending Albuquerque Center
Wed 09:06:05 PM 33.4150 -111.8194 303° West 219 252 4,000 -878 Descending Albuquerque Center
Wed 09:07:06 PM 33.4300 -111.8789 287° West 188 216 3,100 -885 Descending Albuquerque Center

Login

Don't have an account? Register now (free) for customized features, flight alerts, and more!